Time;durP1;ratioP1;P1;durP2;ratioP2;P2;SDS_P1;SDS_P2;PMS_P1;PMS_P2;Temp;Humidity;BMP_temperature;BMP_pressure;BME280_temperature;BME280_humidity;BME280_pressure;Samples;Min_cycle;Max_cycle;Signal;HPM_P1;HPM_P2
2021/12/20 00:01:45;;;;;;;29.95;12.73;;;2.30;99.90;;;;;;4946538;28;20063;-71
2021/12/20 00:04:11;;;;;;;23.58;10.63;;;2.30;99.90;;;;;;4947127;28;20023;-71
2021/12/20 00:06:36;;;;;;;24.70;10.98;;;2.30;99.90;;;;;;4944393;28;20035;-71
2021/12/20 00:09:04;;;;;;;25.02;11.00;;;2.30;99.90;;;;;;4946872;28;20031;-70
2021/12/20 00:11:30;;;;;;;27.13;12.43;;;2.30;99.90;;;;;;4973253;28;20039;-71
2021/12/20 00:13:56;;;;;;;30.80;13.10;;;2.30;99.90;;;;;;4953151;29;20369;-71
2021/12/20 00:16:21;;;;;;;23.17;10.52;;;2.40;99.90;;;;;;4947680;29;20031;-71
2021/12/20 00:18:47;;;;;;;26.58;11.65;;;2.40;99.90;;;;;;4954554;28;20067;-71
2021/12/20 00:21:13;;;;;;;27.42;12.30;;;2.40;99.90;;;;;;4950552;28;20058;-71
2021/12/20 00:23:39;;;;;;;24.15;11.68;;;2.40;99.90;;;;;;4953279;28;20027;-71
2021/12/20 00:26:05;;;;;;;30.15;11.77;;;2.40;99.90;;;;;;4951725;28;20382;-70
2021/12/20 00:28:42;;;;;;;27.63;11.38;;;2.40;99.90;;;;;;4953850;28;20436;-70
2021/12/20 00:31:08;;;;;;;27.05;11.75;;;2.40;99.90;;;;;;4952182;28;20066;-70
2021/12/20 00:33:34;;;;;;;20.05;10.23;;;2.40;99.90;;;;;;4954152;28;20063;-70
2021/12/20 00:36:07;;;;;;;19.48;8.75;;;2.40;99.90;;;;;;4961465;28;20523;-70
2021/12/20 00:41:19;;;;;;;22.35;9.52;;;2.40;99.90;;;;;;4946387;28;20039;-71
2021/12/20 00:43:47;;;;;;;22.20;9.18;;;2.40;99.90;;;;;;4947803;28;20027;-70
2021/12/20 00:46:14;;;;;;;20.55;9.70;;;2.50;99.90;;;;;;4950269;28;20039;-71
2021/12/20 00:48:42;;;;;;;20.05;9.27;;;2.40;99.90;;;;;;4951153;28;20050;-71
2021/12/20 00:51:08;;;;;;;21.88;10.48;;;2.50;99.90;;;;;;4950192;28;20652;-71
2021/12/20 00:53:33;;;;;;;20.92;9.25;;;2.50;99.90;;;;;;4947607;28;20030;-71
2021/12/20 00:55:59;;;;;;;18.25;8.52;;;2.50;99.90;;;;;;4947257;28;20058;-70
2021/12/20 00:58:25;;;;;;;23.98;10.25;;;2.50;99.90;;;;;;4948060;28;20450;-71
2021/12/20 01:00:51;;;;;;;21.60;9.68;;;2.50;99.90;;;;;;4947998;28;20046;-71
2021/12/20 01:03:18;;;;;;;22.70;10.23;;;2.50;99.90;;;;;;4945696;28;20027;-70
2021/12/20 01:05:50;;;;;;;25.42;11.02;;;2.50;99.90;;;;;;4952376;28;20832;-70
2021/12/20 01:08:17;;;;;;;26.33;11.45;;;2.60;99.90;;;;;;4949865;28;20039;-70
2021/12/20 01:10:48;;;;;;;26.88;12.45;;;2.60;99.90;;;;;;4970530;28;20065;-70
2021/12/20 01:13:16;;;;;;;26.38;11.23;;;2.60;99.90;;;;;;4954021;28;20063;-70
2021/12/20 01:15:47;;;;;;;26.45;11.90;;;2.70;99.90;;;;;;4949183;28;20083;-69
2021/12/20 01:18:17;;;;;;;26.80;11.82;;;2.60;99.90;;;;;;4967438;28;20134;-69
2021/12/20 01:20:43;;;;;;;24.60;11.27;;;2.60;99.90;;;;;;4949872;28;20027;-70
2021/12/20 01:23:10;;;;;;;25.08;10.70;;;2.60;99.90;;;;;;4950648;28;20042;-70
2021/12/20 01:25:40;;;;;;;23.92;10.40;;;2.50;99.90;;;;;;4952596;28;20078;-71
2021/12/20 01:28:07;;;;;;;23.52;11.23;;;2.50;99.90;;;;;;4952683;28;20118;-70
2021/12/20 01:30:34;;;;;;;25.65;11.75;;;2.50;99.90;;;;;;4949260;28;20511;-70
2021/12/20 01:33:08;;;;;;;24.35;11.07;;;2.50;99.90;;;;;;4950901;28;20105;-70
2021/12/20 01:35:41;;;;;;;21.85;10.27;;;2.50;99.90;;;;;;4969051;28;20134;-71
2021/12/20 01:38:07;;;;;;;23.55;10.80;;;2.50;99.90;;;;;;4950298;28;20062;-71
2021/12/20 01:40:35;;;;;;;21.70;9.88;;;2.50;99.90;;;;;;4947242;28;20452;-71
2021/12/20 01:43:02;;;;;;;22.65;10.02;;;2.50;99.90;;;;;;4951121;28;20023;-71
2021/12/20 01:45:28;;;;;;;20.58;9.63;;;2.50;99.90;;;;;;4948036;28;20035;-71
2021/12/20 01:48:01;;;;;;;20.77;8.65;;;2.50;99.90;;;;;;4949098;28;20424;-71
2021/12/20 01:53:02;;;;;;;23.77;10.07;;;2.40;99.90;;;;;;4952325;28;20122;-71
2021/12/20 01:55:28;;;;;;;22.88;9.90;;;2.40;99.90;;;;;;4948475;28;20491;-70
2021/12/20 01:57:56;;;;;;;19.13;9.13;;;2.40;99.90;;;;;;4948510;28;20093;-71
2021/12/20 02:00:25;;;;;;;18.85;9.70;;;2.50;99.90;;;;;;4950457;28;20436;-71
2021/12/20 02:03:00;;;;;;;17.63;9.50;;;2.40;99.90;;;;;;4950087;28;20447;-71
2021/12/20 02:05:51;;;;;;;22.38;10.02;;;2.40;99.90;;;;;;4944259;28;20087;-71
2021/12/20 02:08:25;;;;;;;20.23;9.90;;;2.50;99.90;;;;;;4950124;28;20090;-71
2021/12/20 02:10:54;;;;;;;;;;;2.50;99.90;;;;;;4953592;28;20456;-71
2021/12/20 02:13:20;;;;;;;19.45;9.32;;;2.50;99.90;;;;;;4951173;28;19962;-71
2021/12/20 02:15:46;;;;;;;21.95;8.98;;;2.50;99.90;;;;;;4950466;28;20020;-71
2021/12/20 02:18:12;;;;;;;19.75;9.05;;;2.50;99.90;;;;;;4952517;28;20527;-70
2021/12/20 02:20:40;;;;;;;20.00;9.55;;;2.50;99.90;;;;;;4950142;28;20090;-69
2021/12/20 02:23:07;;;;;;;23.00;9.80;;;2.50;99.90;;;;;;4949722;28;20027;-70
2021/12/20 02:25:36;;;;;;;25.77;11.20;;;2.50;99.90;;;;;;4949909;28;20035;-70
2021/12/20 02:28:06;;;;;;;20.95;9.40;;;2.50;99.90;;;;;;4946846;28;20054;-69
2021/12/20 02:38:31;;;;;;;21.17;9.63;;;2.50;99.90;;;;;;4950762;29;20405;-70
2021/12/20 02:41:09;;;;;;;24.77;9.80;;;2.40;99.90;;;;;;4948795;28;20031;-69
2021/12/20 02:43:40;;;;;;;22.48;9.77;;;2.50;99.90;;;;;;4950910;28;20047;-70
2021/12/20 02:46:23;;;;;;;25.05;10.55;;;2.50;99.90;;;;;;4963167;28;20027;-71
2021/12/20 02:48:49;;;;;;;24.63;11.45;;;2.50;99.90;;;;;;4951000;28;20031;-71
2021/12/20 02:51:15;;;;;;;27.13;11.07;;;2.50;99.90;;;;;;4951247;28;20038;-70
2021/12/20 02:53:40;;;;;;;22.20;10.15;;;2.50;99.90;;;;;;4952629;28;20031;-70
2021/12/20 02:56:06;;;;;;;23.67;9.95;;;2.50;99.90;;;;;;4949046;28;20032;-70
2021/12/20 02:58:35;;;;;;;25.70;11.00;;;2.50;99.90;;;;;;4948465;28;20448;-70
2021/12/20 03:01:00;;;;;;;31.67;12.40;;;2.50;99.90;;;;;;4946470;28;20031;-70
2021/12/20 03:03:26;;;;;;;23.98;10.25;;;2.50;99.90;;;;;;4963628;28;20034;-70
2021/12/20 03:05:52;;;;;;;24.27;11.30;;;2.50;99.90;;;;;;4949519;29;20031;-70
2021/12/20 03:08:22;;;;;;;22.83;10.98;;;2.50;99.90;;;;;;4951837;28;20523;-70
2021/12/20 03:10:49;;;;;;;21.92;10.52;;;2.50;99.90;;;;;;4950365;28;20042;-70
2021/12/20 03:13:15;;;;;;;24.65;11.13;;;2.50;99.90;;;;;;4946014;28;20034;-70
2021/12/20 03:15:41;;;;;;;28.42;11.88;;;2.40;99.90;;;;;;4949557;28;20027;-70
2021/12/20 03:18:07;;;;;;;25.98;11.40;;;2.50;99.90;;;;;;4949661;28;20031;-71
2021/12/20 03:20:33;;;;;;;25.33;11.40;;;2.50;99.90;;;;;;4947217;28;20028;-71
2021/12/20 03:22:59;;;;;;;27.15;13.27;;;2.50;99.90;;;;;;4950870;28;20019;-70
2021/12/20 03:25:25;;;;;;;24.90;12.13;;;2.50;99.90;;;;;;4949154;28;20023;-71
2021/12/20 03:27:51;;;;;;;23.88;11.73;;;2.50;99.90;;;;;;4946419;28;20048;-70
2021/12/20 03:30:16;;;;;;;25.92;12.02;;;2.50;99.90;;;;;;4950017;28;20034;-71
2021/12/20 03:32:42;;;;;;;24.60;10.98;;;2.50;99.90;;;;;;4949399;28;20403;-70
2021/12/20 03:35:09;;;;;;;26.45;11.15;;;2.50;99.90;;;;;;4949943;28;20660;-70
2021/12/20 03:37:41;;;;;;;23.60;10.63;;;2.50;99.90;;;;;;4952165;28;20023;-69
2021/12/20 03:40:11;;;;;;;23.00;10.60;;;2.50;99.90;;;;;;4951413;28;20941;-70
2021/12/20 03:42:41;;;;;;;27.40;11.30;;;2.50;99.90;;;;;;4946658;28;20023;-70
2021/12/20 03:45:13;;;;;;;25.90;10.95;;;2.60;99.90;;;;;;4947797;28;20030;-69
2021/12/20 03:47:38;;;;;;;23.02;11.07;;;2.60;99.90;;;;;;4947186;28;20020;-72
2021/12/20 03:50:05;;;;;;;26.63;10.77;;;2.60;99.90;;;;;;4950068;29;20054;-70
2021/12/20 03:52:30;;;;;;;23.65;10.35;;;2.60;99.90;;;;;;4950915;28;20110;-69
2021/12/20 03:54:56;;;;;;;27.30;11.98;;;2.60;99.90;;;;;;4950724;28;20103;-73
2021/12/20 03:57:21;;;;;;;24.92;11.65;;;2.60;99.90;;;;;;4945652;28;20053;-72
2021/12/20 03:59:52;;;;;;;26.50;11.88;;;2.60;99.90;;;;;;4948541;28;20091;-70
2021/12/20 04:02:19;;;;;;;23.95;11.02;;;2.60;99.90;;;;;;4944768;28;20019;-71
2021/12/20 04:04:45;;;;;;;22.77;11.27;;;2.60;99.90;;;;;;4949295;28;20110;-70
2021/12/20 04:07:11;;;;;;;26.90;11.30;;;2.60;99.90;;;;;;4950111;28;20115;-71
2021/12/20 04:09:40;;;;;;;27.05;11.80;;;2.60;99.90;;;;;;4948085;28;20031;-69
2021/12/20 04:12:06;;;;;;;24.88;10.35;;;2.60;99.90;;;;;;4958519;28;20027;-72
2021/12/20 04:14:31;;;;;;;23.38;10.60;;;2.60;99.90;;;;;;4948456;28;20035;-71
2021/12/20 04:16:57;;;;;;;23.15;11.27;;;2.60;99.90;;;;;;4944796;28;20034;-71
2021/12/20 04:19:26;;;;;;;28.55;12.07;;;2.60;99.90;;;;;;4951254;29;20035;-72
2021/12/20 04:21:51;;;;;;;26.90;11.90;;;2.60;99.90;;;;;;4951138;28;20035;-72
2021/12/20 04:24:17;;;;;;;26.17;12.75;;;2.60;99.90;;;;;;4950255;28;20031;-72
2021/12/20 04:26:46;;;;;;;28.67;12.52;;;2.60;99.90;;;;;;4945970;28;20030;-72
2021/12/20 04:29:11;;;;;;;28.42;12.43;;;2.60;99.90;;;;;;4945029;28;20035;-72
2021/12/20 04:31:37;;;;;;;32.65;14.18;;;2.60;99.90;;;;;;4947658;28;20393;-72
2021/12/20 04:34:03;;;;;;;29.00;13.10;;;2.60;99.90;;;;;;4944985;28;20059;-72
2021/12/20 04:36:35;;;;;;;29.85;13.75;;;2.60;99.90;;;;;;4950220;28;20038;-72
2021/12/20 04:39:04;;;;;;;32.35;13.25;;;2.60;99.90;;;;;;4946035;28;20038;-72
2021/12/20 04:41:29;;;;;;;31.35;13.45;;;2.60;99.90;;;;;;4953435;28;20031;-71
2021/12/20 04:43:55;;;;;;;30.25;13.48;;;2.60;99.90;;;;;;4946578;28;20503;-72
2021/12/20 04:46:20;;;;;;;33.28;14.73;;;2.60;99.90;;;;;;4954350;28;20033;-72
2021/12/20 04:48:49;;;;;;;27.17;13.52;;;2.60;99.90;;;;;;4946315;28;20043;-72
2021/12/20 04:51:15;;;;;;;32.25;15.10;;;2.60;99.90;;;;;;4953730;28;20027;-72
2021/12/20 04:53:43;;;;;;;29.60;13.27;;;2.60;99.90;;;;;;4946416;28;20028;-72
2021/12/20 04:56:12;;;;;;;30.83;13.48;;;2.60;99.90;;;;;;4955213;28;20206;-71
2021/12/20 04:58:38;;;;;;;28.65;13.98;;;2.60;99.90;;;;;;4951816;28;20027;-72
2021/12/20 05:01:04;;;;;;;30.92;14.20;;;2.60;99.90;;;;;;4952180;28;20144;-72
2021/12/20 05:03:29;;;;;;;35.58;14.20;;;2.60;99.90;;;;;;4948772;28;20178;-72
2021/12/20 05:05:56;;;;;;;30.48;14.13;;;2.60;99.90;;;;;;4983533;28;20034;-71
2021/12/20 05:08:21;;;;;;;30.55;13.18;;;2.70;99.90;;;;;;4947459;29;20035;-73
2021/12/20 05:10:47;;;;;;;29.50;12.48;;;2.70;99.90;;;;;;4951990;28;20044;-72
2021/12/20 05:13:21;;;;;;;27.35;11.98;;;2.70;99.90;;;;;;4955802;28;20059;-72
2021/12/20 05:15:47;;;;;;;26.67;11.65;;;2.70;99.90;;;;;;4948181;28;20512;-73
2021/12/20 05:18:16;;;;;;;22.13;10.85;;;2.70;99.90;;;;;;4954446;28;20030;-72
2021/12/20 05:20:42;;;;;;;27.30;11.88;;;2.70;99.90;;;;;;4950572;28;20046;-72
2021/12/20 05:23:08;;;;;;;34.40;15.50;;;2.70;99.90;;;;;;4980868;28;20040;-72
2021/12/20 05:25:35;;;;;;;26.55;13.40;;;2.70;99.90;;;;;;4953368;28;20047;-72
2021/12/20 05:28:00;;;;;;;26.08;12.57;;;2.70;99.90;;;;;;4954740;28;20118;-72
2021/12/20 05:30:26;;;;;;;24.65;11.88;;;2.70;99.90;;;;;;4955676;28;20173;-71
2021/12/20 05:32:55;;;;;;;26.05;11.68;;;2.70;99.90;;;;;;4955453;28;20154;-72
2021/12/20 05:35:22;;;;;;;22.77;11.00;;;2.70;99.90;;;;;;4956702;28;20038;-71
2021/12/20 05:37:49;;;;;;;23.58;11.07;;;2.70;99.90;;;;;;4953369;28;20067;-71
2021/12/20 05:40:16;;;;;;;29.67;12.20;;;2.70;99.90;;;;;;4951277;28;20037;-72
2021/12/20 05:42:42;;;;;;;23.63;10.95;;;2.70;99.90;;;;;;4951068;28;20027;-72
2021/12/20 05:45:09;;;;;;;22.92;11.02;;;2.70;99.90;;;;;;4951927;28;20488;-69
2021/12/20 05:47:35;;;;;;;26.38;11.48;;;2.80;99.90;;;;;;4947268;29;20685;-68
2021/12/20 05:50:02;;;;;;;26.63;11.40;;;2.90;99.90;;;;;;4947304;28;20027;-69
2021/12/20 05:52:33;;;;;;;28.38;12.50;;;2.90;99.90;;;;;;4951078;28;20027;-68
2021/12/20 05:54:59;;;;;;;28.75;12.23;;;2.90;99.90;;;;;;4944519;28;20027;-73
2021/12/20 05:57:25;;;;;;;21.15;10.25;;;3.00;99.90;;;;;;4947402;28;20034;-72
2021/12/20 05:59:51;;;;;;;25.52;11.93;;;2.90;99.90;;;;;;4948558;29;20174;-71
2021/12/20 06:02:17;;;;;;;34.30;13.63;;;2.90;99.90;;;;;;4947681;28;20424;-72
2021/12/20 06:04:43;;;;;;;30.73;14.27;;;2.90;99.90;;;;;;4945257;28;20493;-72
2021/12/20 06:07:09;;;;;;;28.17;12.82;;;2.90;99.90;;;;;;4946553;28;20123;-69
2021/12/20 06:09:35;;;;;;;30.58;14.13;;;2.90;99.90;;;;;;4944873;28;20023;-68
2021/12/20 06:12:01;;;;;;;29.70;12.68;;;2.80;99.90;;;;;;4947770;28;20019;-68
2021/12/20 06:14:27;;;;;;;30.35;12.60;;;2.80;99.90;;;;;;4951173;28;20031;-68
2021/12/20 06:16:55;;;;;;;31.25;15.00;;;2.80;99.90;;;;;;4980713;28;20059;-69
2021/12/20 06:19:22;;;;;;;26.92;12.73;;;2.80;99.90;;;;;;4946947;28;20093;-71
2021/12/20 06:21:48;;;;;;;30.10;13.88;;;2.80;99.90;;;;;;4951503;28;20118;-71
2021/12/20 06:24:13;;;;;;;31.75;13.73;;;2.70;99.90;;;;;;4951448;28;20139;-70
2021/12/20 06:26:39;;;;;;;32.35;13.90;;;2.80;99.90;;;;;;4952089;28;20046;-72
2021/12/20 06:29:05;;;;;;;30.77;14.00;;;2.70;99.90;;;;;;4955611;28;20042;-71
2021/12/20 06:31:30;;;;;;;28.48;13.93;;;2.70;99.90;;;;;;4949654;28;20027;-69
2021/12/20 06:33:56;;;;;;;35.22;14.50;;;2.70;99.90;;;;;;4948574;28;20035;-71
2021/12/20 06:36:22;;;;;;;31.70;14.02;;;2.80;99.90;;;;;;4944033;28;20400;-71
2021/12/20 06:38:53;;;;;;;33.58;15.52;;;2.70;99.90;;;;;;4945390;28;20171;-68
2021/12/20 06:41:18;;;;;;;31.33;13.88;;;2.80;99.90;;;;;;4946491;28;20020;-71
2021/12/20 06:43:44;;;;;;;29.73;13.98;;;2.70;99.90;;;;;;4951757;28;20398;-72
2021/12/20 06:46:10;;;;;;;34.83;14.25;;;2.80;99.90;;;;;;4969463;28;20063;-71
2021/12/20 06:48:36;;;;;;;27.90;13.15;;;2.70;99.90;;;;;;4954697;28;20033;-71
2021/12/20 06:51:02;;;;;;;30.80;13.27;;;2.70;99.90;;;;;;4947962;28;20028;-69
2021/12/20 06:53:28;;;;;;;31.65;14.18;;;2.70;99.90;;;;;;4954757;28;20035;-69
2021/12/20 06:55:53;;;;;;;31.48;14.23;;;2.70;99.90;;;;;;4949335;28;20023;-68
2021/12/20 06:58:19;;;;;;;35.85;14.50;;;2.70;99.90;;;;;;4947345;29;20136;-70
2021/12/20 07:00:45;;;;;;;28.17;13.02;;;2.70;99.90;;;;;;4949200;28;20024;-69
2021/12/20 07:03:10;;;;;;;27.65;13.82;;;2.80;99.90;;;;;;4949484;28;20038;-71
2021/12/20 07:05:36;;;;;;;32.05;13.57;;;2.70;99.90;;;;;;4954391;28;20038;-68
2021/12/20 07:08:02;;;;;;;33.95;15.20;;;2.80;99.90;;;;;;4953152;28;20035;-69
2021/12/20 07:10:28;;;;;;;31.38;14.57;;;2.70;99.90;;;;;;4982487;28;20421;-69
2021/12/20 07:12:55;;;;;;;34.92;16.45;;;2.70;99.90;;;;;;4951348;28;20066;-68
2021/12/20 07:15:22;;;;;;;29.77;14.05;;;2.70;99.90;;;;;;4944695;28;20030;-69
2021/12/20 07:17:48;;;;;;;33.63;14.60;;;2.70;99.90;;;;;;4948894;28;20041;-69
2021/12/20 07:20:14;;;;;;;29.73;12.85;;;2.80;99.90;;;;;;4947964;28;20027;-70
2021/12/20 07:22:39;;;;;;;34.13;14.45;;;2.80;99.90;;;;;;4948560;28;20462;-68
2021/12/20 07:25:05;;;;;;;32.00;14.43;;;2.70;99.90;;;;;;4952117;28;20035;-69
2021/12/20 07:27:31;;;;;;;29.88;13.95;;;2.80;99.90;;;;;;4969181;28;20033;-68
2021/12/20 07:29:58;;;;;;;26.80;13.65;;;2.80;99.90;;;;;;4948654;28;20027;-69
2021/12/20 07:32:24;;;;;;;25.80;13.50;;;2.80;99.90;;;;;;4920538;28;20068;-68
2021/12/20 07:34:49;;;;;;;29.33;14.48;;;2.80;99.90;;;;;;4959213;28;20038;-69
2021/12/20 07:37:16;;;;;;;26.48;13.32;;;2.80;99.90;;;;;;4948662;28;20024;-68
2021/12/20 07:39:42;;;;;;;26.90;12.88;;;2.80;99.90;;;;;;4948028;28;20035;-69
2021/12/20 07:42:08;;;;;;;28.67;13.45;;;2.80;99.90;;;;;;4947316;28;20035;-69
2021/12/20 07:44:36;;;;;;;28.55;13.25;;;2.80;99.90;;;;;;4963688;28;20027;-69
2021/12/20 07:47:02;;;;;;;31.02;14.70;;;2.80;99.90;;;;;;4948813;28;20062;-68
2021/12/20 07:49:33;;;;;;;34.10;15.18;;;2.90;99.90;;;;;;4946468;28;20251;-68
2021/12/20 07:51:59;;;;;;;30.13;13.45;;;2.90;99.90;;;;;;4950868;28;20400;-69
2021/12/20 07:54:25;;;;;;;31.27;14.63;;;2.90;99.90;;;;;;4950282;28;20027;-68
2021/12/20 07:56:50;;;;;;;35.05;14.57;;;2.90;99.90;;;;;;4945174;28;20031;-69
2021/12/20 07:59:16;;;;;;;32.35;14.82;;;2.90;99.90;;;;;;4954020;28;20035;-69
2021/12/20 08:01:42;;;;;;;30.98;13.65;;;3.00;99.90;;;;;;4947101;28;20469;-68
2021/12/20 08:04:08;;;;;;;31.02;13.32;;;3.10;99.90;;;;;;4952832;28;20070;-68
2021/12/20 08:06:34;;;;;;;31.33;13.73;;;3.10;99.90;;;;;;4953079;28;20030;-69
2021/12/20 08:09:00;;;;;;;25.67;13.00;;;3.10;99.90;;;;;;4981131;28;20038;-70
2021/12/20 08:11:26;;;;;;;27.85;13.07;;;3.10;99.90;;;;;;4950275;28;20125;-70
2021/12/20 08:13:51;;;;;;;28.48;13.70;;;3.10;99.90;;;;;;4954990;28;20023;-69
2021/12/20 08:16:19;;;;;;;28.55;13.30;;;3.20;99.90;;;;;;4947043;28;20031;-70
2021/12/20 08:18:48;;;;;;;27.92;12.63;;;3.20;99.90;;;;;;4946345;28;20052;-70
2021/12/20 08:21:15;;;;;;;25.75;12.60;;;3.20;99.90;;;;;;4952919;28;20102;-69
2021/12/20 08:23:41;;;;;;;33.22;13.75;;;3.20;99.90;;;;;;4950361;28;20492;-69
2021/12/20 08:26:08;;;;;;;28.48;14.10;;;3.30;99.90;;;;;;4952823;28;20040;-70
2021/12/20 08:28:35;;;;;;;27.27;13.38;;;3.30;99.90;;;;;;4949675;28;20031;-69
2021/12/20 08:31:03;;;;;;;27.40;12.77;;;3.30;99.90;;;;;;4950460;28;20110;-69
2021/12/20 08:33:29;;;;;;;26.30;12.95;;;3.30;99.90;;;;;;4948120;28;20035;-68
2021/12/20 08:35:54;;;;;;;24.90;12.70;;;3.30;99.90;;;;;;4951342;28;20050;-69
2021/12/20 08:38:20;;;;;;;26.27;13.35;;;3.30;99.90;;;;;;4948322;28;20066;-68
2021/12/20 08:40:47;;;;;;;25.63;12.93;;;3.30;99.90;;;;;;4983162;28;20023;-69
2021/12/20 08:43:15;;;;;;;26.52;12.40;;;3.30;99.90;;;;;;4952589;28;20054;-71
2021/12/20 08:45:41;;;;;;;26.10;12.27;;;3.30;99.90;;;;;;4952064;28;20114;-69
2021/12/20 08:48:07;;;;;;;25.40;12.85;;;3.40;99.90;;;;;;4947567;29;20070;-71
2021/12/20 08:50:33;;;;;;;23.75;12.13;;;3.30;99.90;;;;;;4943207;28;20165;-72
2021/12/20 08:52:59;;;;;;;30.65;15.60;;;3.30;99.90;;;;;;4947060;28;20503;-72
2021/12/20 08:55:26;;;;;;;32.17;14.95;;;3.30;99.90;;;;;;4944597;28;20032;-72
2021/12/20 08:57:52;;;;;;;28.95;13.52;;;3.40;99.90;;;;;;4951363;28;20035;-72
2021/12/20 09:00:30;;;;;;;28.33;12.63;;;3.40;99.90;;;;;;4945452;28;20027;-72
2021/12/20 09:02:55;;;;;;;29.75;13.98;;;3.40;99.90;;;;;;4948115;28;20031;-71
2021/12/20 09:05:23;;;;;;;28.95;14.43;;;3.40;99.90;;;;;;4948998;28;20038;-71
2021/12/20 09:07:49;;;;;;;27.80;13.57;;;3.50;99.90;;;;;;4947266;28;20127;-71
2021/12/20 09:10:15;;;;;;;26.35;13.27;;;3.50;99.90;;;;;;4948910;28;20494;-70
2021/12/20 09:12:43;;;;;;;32.13;15.40;;;3.50;99.90;;;;;;4947798;28;20111;-71
2021/12/20 09:15:16;;;;;;;27.92;13.75;;;3.50;99.90;;;;;;4935304;28;20421;-70
2021/12/20 09:17:53;;;;;;;27.92;13.32;;;3.60;99.90;;;;;;4960091;28;20400;-71
2021/12/20 09:20:22;;;;;;;28.77;13.25;;;3.70;99.90;;;;;;4943340;28;20027;-71
2021/12/20 09:22:51;;;;;;;27.25;13.38;;;3.70;99.90;;;;;;4945059;28;20057;-72
2021/12/20 09:25:21;;;;;;;27.80;12.88;;;3.70;99.90;;;;;;4950223;28;20019;-71
2021/12/20 09:27:47;;;;;;;28.50;13.48;;;3.70;99.90;;;;;;4953834;28;20417;-72
2021/12/20 09:30:14;;;;;;;28.77;13.40;;;3.60;99.90;;;;;;4952355;28;20035;-72
2021/12/20 09:32:40;;;;;;;26.00;13.10;;;3.60;99.90;;;;;;4952295;28;20035;-72
2021/12/20 09:35:07;;;;;;;29.10;13.93;;;3.60;99.90;;;;;;4951931;28;20435;-71
2021/12/20 09:37:38;;;;;;;27.08;14.02;;;3.60;99.90;;;;;;4954226;28;20030;-71
2021/12/20 09:40:14;;;;;;;26.92;13.48;;;3.60;99.90;;;;;;4982265;28;20042;-71
2021/12/20 09:42:52;;;;;;;30.42;13.73;;;3.50;99.90;;;;;;4953656;28;20102;-73
2021/12/20 09:45:24;;;;;;;33.50;14.38;;;3.50;99.90;;;;;;4952398;29;20094;-73
2021/12/20 09:47:53;;;;;;;36.58;14.48;;;3.60;99.90;;;;;;4955784;29;20118;-72
2021/12/20 09:50:19;;;;;;;30.98;14.13;;;3.60;99.90;;;;;;4957509;28;20027;-72
2021/12/20 09:52:45;;;;;;;29.58;14.60;;;3.60;99.90;;;;;;4957139;28;20645;-72
2021/12/20 09:55:17;;;;;;;29.90;13.77;;;3.60;99.90;;;;;;4955706;28;20078;-73
2021/12/20 09:57:47;;;;;;;34.20;15.05;;;3.70;99.90;;;;;;4949499;28;20019;-73
2021/12/20 10:00:15;;;;;;;32.40;15.65;;;3.80;99.90;;;;;;4953343;28;20031;-71
2021/12/20 10:02:47;;;;;;;33.70;14.52;;;3.80;99.90;;;;;;4951414;28;20039;-74
2021/12/20 10:05:13;;;;;;;31.73;14.75;;;3.90;99.90;;;;;;4955687;29;20377;-73
2021/12/20 10:07:40;;;;;;;27.77;13.32;;;3.90;99.90;;;;;;4964089;28;20115;-73
2021/12/20 10:10:10;;;;;;;29.70;14.80;;;3.90;99.90;;;;;;4974502;28;20031;-72
2021/12/20 10:12:50;;;;;;;31.02;15.02;;;4.00;99.90;;;;;;4946532;28;20043;-73
2021/12/20 10:15:16;;;;;;;25.75;13.20;;;4.00;99.90;;;;;;4954574;29;20031;-71
2021/12/20 10:17:59;;;;;;;27.75;14.50;;;4.00;99.90;;;;;;4950829;28;20501;-72
2021/12/20 10:20:28;;;;;;;29.58;14.15;;;4.00;99.90;;;;;;4952435;29;20019;-72
2021/12/20 10:23:07;;;;;;;27.80;14.10;;;4.10;99.90;;;;;;4951633;28;20031;-72
2021/12/20 10:25:35;;;;;;;30.95;14.43;;;4.10;99.90;;;;;;4943108;29;20047;-73
2021/12/20 10:28:31;;;;;;;32.67;15.60;;;4.10;99.90;;;;;;4961367;28;20035;-73
2021/12/20 10:31:11;;;;;;;34.25;14.25;;;4.10;99.90;;;;;;4944818;28;20043;-72
2021/12/20 10:33:38;;;;;;;30.33;13.93;;;4.10;99.90;;;;;;4958011;28;20130;-72
2021/12/20 10:36:13;;;;;;;28.33;14.85;;;4.10;99.90;;;;;;4956381;28;20035;-73
2021/12/20 10:38:41;;;;;;;29.73;14.75;;;4.20;99.90;;;;;;4951882;28;20138;-72
2021/12/20 10:41:12;;;;;;;26.35;13.75;;;4.30;99.90;;;;;;4952625;28;20027;-72
2021/12/20 10:43:49;;;;;;;31.27;14.55;;;4.30;99.90;;;;;;4967654;28;20384;-73
2021/12/20 10:46:24;;;;;;;26.05;13.38;;;4.30;99.90;;;;;;4954322;28;20034;-72
2021/12/20 10:48:58;;;;;;;26.20;13.05;;;4.30;99.90;;;;;;4954825;28;20475;-72
2021/12/20 10:51:34;;;;;;;31.35;14.82;;;4.40;99.90;;;;;;4957103;28;20440;-73
2021/12/20 10:54:02;;;;;;;28.60;14.82;;;4.40;99.90;;;;;;4955812;28;20035;-73
2021/12/20 10:56:30;;;;;;;33.45;14.38;;;4.30;99.90;;;;;;4950813;28;20110;-72
2021/12/20 10:58:58;;;;;;;26.33;13.82;;;4.30;99.90;;;;;;4955042;28;20523;-72
2021/12/20 11:01:48;;;;;;;27.23;14.35;;;4.40;99.90;;;;;;4966403;28;20480;-72
2021/12/20 11:04:24;;;;;;;30.80;14.45;;;4.30;99.90;;;;;;4955107;28;20504;-72
2021/12/20 11:09:40;;;;;;;36.35;14.82;;;4.30;99.90;;;;;;4950701;28;20684;-72
2021/12/20 11:12:12;;;;;;;31.63;14.75;;;4.20;99.90;;;;;;4953641;28;20404;-72
2021/12/20 11:14:47;;;;;;;29.95;14.95;;;4.30;99.90;;;;;;4948327;28;20114;-70
2021/12/20 11:17:15;;;;;;;30.67;14.63;;;4.30;99.90;;;;;;4947261;28;20141;-71
2021/12/20 11:19:42;;;;;;;32.03;15.10;;;4.20;99.90;;;;;;4947845;28;20118;-72
2021/12/20 11:22:09;;;;;;;31.27;15.93;;;4.20;99.90;;;;;;4966617;28;20035;-72
2021/12/20 11:25:00;;;;;;;31.98;14.93;;;4.20;99.90;;;;;;4953852;28;20110;-72
2021/12/20 11:27:32;;;;;;;28.30;12.90;;;4.20;99.90;;;;;;4940657;28;20031;-72
2021/12/20 11:30:00;;;;;;;28.48;14.82;;;4.10;99.90;;;;;;4956418;28;20031;-71
2021/12/20 11:32:27;;;;;;;28.60;14.93;;;4.10;99.90;;;;;;4963702;28;20519;-72
2021/12/20 11:34:53;;;;;;;35.17;15.65;;;4.10;99.90;;;;;;4949700;28;20027;-72
2021/12/20 11:37:22;;;;;;;31.15;15.35;;;4.10;99.90;;;;;;4947740;28;20035;-73
2021/12/20 11:39:48;;;;;;;30.63;14.38;;;4.00;99.90;;;;;;4952499;28;20090;-72
2021/12/20 11:42:15;;;;;;;26.67;15.10;;;3.90;99.90;;;;;;4949733;28;20153;-72
2021/12/20 11:44:45;;;;;;;33.40;16.83;;;4.00;99.90;;;;;;4952058;28;20050;-72
2021/12/20 11:47:21;;;;;;;31.92;15.45;;;4.00;99.90;;;;;;4954431;28;20031;-72
2021/12/20 11:49:59;;;;;;;27.73;14.77;;;3.90;99.90;;;;;;4951810;28;20119;-73
2021/12/20 11:52:33;;;;;;;27.60;13.95;;;3.90;99.90;;;;;;4984236;28;20035;-73
2021/12/20 11:55:13;;;;;;;28.65;13.80;;;3.90;99.90;;;;;;4954642;28;20062;-73
2021/12/20 11:57:42;;;;;;;26.15;13.45;;;3.90;99.90;;;;;;4971980;28;20037;-73
2021/12/20 12:00:24;;;;;;;26.00;13.98;;;3.80;99.90;;;;;;4948721;29;20107;-73
2021/12/20 12:02:53;;;;;;;27.77;13.88;;;3.80;99.90;;;;;;4951269;28;20031;-71
2021/12/20 12:05:48;;;;;;;33.80;15.07;;;3.90;99.90;;;;;;4950192;29;20512;-72
2021/12/20 12:08:42;;;;;;;29.98;14.07;;;4.00;99.90;;;;;;4983072;28;20028;-72
2021/12/20 12:11:08;;;;;;;25.13;12.52;;;4.20;99.90;;;;;;4956818;28;20019;-73
2021/12/20 12:16:26;;;;;;;31.40;15.60;;;4.40;99.90;;;;;;4955040;28;20039;-71
2021/12/20 12:18:54;;;;;;;30.00;15.20;;;4.40;99.90;;;;;;4952103;29;20030;-72
2021/12/20 12:21:40;;;;;;;27.83;12.25;;;4.50;99.90;;;;;;4954096;28;20520;-72
2021/12/20 12:24:14;;;;;;;24.73;13.50;;;4.60;99.90;;;;;;4968316;28;20054;-72
2021/12/20 12:26:50;;;;;;;21.60;11.90;;;4.60;99.90;;;;;;4949812;28;20035;-72
2021/12/20 12:29:23;;;;;;;28.52;12.60;;;4.70;99.90;;;;;;4946173;28;20031;-73
2021/12/20 12:32:00;;;;;;;24.10;12.32;;;4.80;99.90;;;;;;4954182;29;20049;-73
2021/12/20 12:34:40;;;;;;;26.95;12.50;;;4.80;99.90;;;;;;4954661;29;20555;-73
2021/12/20 12:37:34;;;;;;;24.77;11.48;;;4.90;99.90;;;;;;4953916;28;20035;-73
2021/12/20 12:40:26;;;;;;;27.85;12.48;;;4.90;99.90;;;;;;4953477;28;20101;-73
2021/12/20 12:42:57;;;;;;;23.65;12.55;;;4.80;99.90;;;;;;4964203;28;20024;-73
2021/12/20 12:45:50;;;;;;;23.83;12.35;;;4.90;99.90;;;;;;4951384;28;20629;-73
2021/12/20 12:48:49;;;;;;;23.20;11.90;;;4.80;99.90;;;;;;4950860;28;20027;-73
2021/12/20 12:51:18;;;;;;;24.73;11.68;;;4.80;99.90;;;;;;4950319;28;20033;-73
2021/12/20 12:53:53;;;;;;;23.15;11.77;;;4.80;99.90;;;;;;4951176;28;20023;-73
2021/12/20 12:56:29;;;;;;;27.00;13.68;;;4.80;99.90;;;;;;4948594;28;20027;-73
2021/12/20 12:59:13;;;;;;;22.27;11.88;;;4.80;99.90;;;;;;4969933;28;20083;-72
2021/12/20 13:01:40;;;;;;;;;;;4.80;99.90;;;;;;4950688;28;20027;-72
2021/12/20 13:04:06;;;;;;;23.00;10.60;;;4.80;99.90;;;;;;4973908;28;19914;-73
2021/12/20 13:06:32;;;;;;;24.52;10.40;;;4.70;99.90;;;;;;4973610;28;20098;-72